sensor_id;sensor_type;location;lat;lon;timestamp;temperature;humidity
21261;DHT22;10788;47.930;9.766;2023-04-03T00:01:16;3.10;99.90
21261;DHT22;10788;47.930;9.766;2023-04-03T00:03:41;3.00;99.90
21261;DHT22;10788;47.930;9.766;2023-04-03T00:06:08;3.10;99.90
21261;DHT22;10788;47.930;9.766;2023-04-03T00:08:36;2.90;99.90
21261;DHT22;10788;47.930;9.766;2023-04-03T00:11:01;2.90;99.90
21261;DHT22;10788;47.930;9.766;2023-04-03T00:13:27;2.80;99.90
21261;DHT22;10788;47.930;9.766;2023-04-03T00:15:53;2.70;99.90
21261;DHT22;10788;47.930;9.766;2023-04-03T00:18:20;2.70;99.90
21261;DHT22;10788;47.930;9.766;2023-04-03T00:20:45;2.70;99.90
21261;DHT22;10788;47.930;9.766;2023-04-03T00:23:11;2.70;99.90
21261;DHT22;10788;47.930;9.766;2023-04-03T00:25:37;2.60;99.90
21261;DHT22;10788;47.930;9.766;2023-04-03T00:28:03;2.50;99.90
21261;DHT22;10788;47.930;9.766;2023-04-03T00:30:29;2.30;99.90
21261;DHT22;10788;47.930;9.766;2023-04-03T00:32:55;2.20;99.90
21261;DHT22;10788;47.930;9.766;2023-04-03T00:35:21;2.30;99.90
21261;DHT22;10788;47.930;9.766;2023-04-03T00:37:50;2.20;99.90
21261;DHT22;10788;47.930;9.766;2023-04-03T00:40:16;2.20;99.90
21261;DHT22;10788;47.930;9.766;2023-04-03T00:42:43;2.30;99.90
21261;DHT22;10788;47.930;9.766;2023-04-03T00:45:31;2.00;99.90
21261;DHT22;10788;47.930;9.766;2023-04-03T00:47:58;2.00;99.90
21261;DHT22;10788;47.930;9.766;2023-04-03T00:50:27;2.10;99.90
21261;DHT22;10788;47.930;9.766;2023-04-03T00:52:53;2.10;99.90
21261;DHT22;10788;47.930;9.766;2023-04-03T00:55:19;2.10;99.90
21261;DHT22;10788;47.930;9.766;2023-04-03T00:57:46;1.90;99.90
21261;DHT22;10788;47.930;9.766;2023-04-03T01:00:14;1.90;99.90
21261;DHT22;10788;47.930;9.766;2023-04-03T01:02:40;2.00;99.90
21261;DHT22;10788;47.930;9.766;2023-04-03T01:05:09;2.00;99.90
21261;DHT22;10788;47.930;9.766;2023-04-03T01:07:34;1.90;99.90
21261;DHT22;10788;47.930;9.766;2023-04-03T01:10:05;1.90;99.90
21261;DHT22;10788;47.930;9.766;2023-04-03T01:12:35;1.90;99.90
21261;DHT22;10788;47.930;9.766;2023-04-03T01:17:39;1.90;99.90
21261;DHT22;10788;47.930;9.766;2023-04-03T01:28:04;1.80;99.90
21261;DHT22;10788;47.930;9.766;2023-04-03T01:30:56;1.90;99.90
21261;DHT22;10788;47.930;9.766;2023-04-03T01:33:19;1.90;99.90
21261;DHT22;10788;47.930;9.766;2023-04-03T01:35:45;1.80;99.90
21261;DHT22;10788;47.930;9.766;2023-04-03T01:38:10;1.70;99.90
21261;DHT22;10788;47.930;9.766;2023-04-03T01:40:36;1.70;99.90
21261;DHT22;10788;47.930;9.766;2023-04-03T01:43:02;1.80;99.90
21261;DHT22;10788;47.930;9.766;2023-04-03T01:45:27;1.90;99.90
21261;DHT22;10788;47.930;9.766;2023-04-03T01:47:54;1.90;99.90
21261;DHT22;10788;47.930;9.766;2023-04-03T01:50:20;1.90;99.90
21261;DHT22;10788;47.930;9.766;2023-04-03T01:52:45;1.90;99.90
21261;DHT22;10788;47.930;9.766;2023-04-03T01:55:11;1.90;99.90
21261;DHT22;10788;47.930;9.766;2023-04-03T01:57:36;1.90;99.90
21261;DHT22;10788;47.930;9.766;2023-04-03T02:00:03;1.90;99.90
21261;DHT22;10788;47.930;9.766;2023-04-03T02:02:28;1.90;99.90
21261;DHT22;10788;47.930;9.766;2023-04-03T02:04:54;1.90;99.90
21261;DHT22;10788;47.930;9.766;2023-04-03T02:07:20;1.90;99.90
21261;DHT22;10788;47.930;9.766;2023-04-03T02:09:45;1.90;99.90
21261;DHT22;10788;47.930;9.766;2023-04-03T02:12:11;2.00;99.90
21261;DHT22;10788;47.930;9.766;2023-04-03T02:14:37;2.00;99.90
21261;DHT22;10788;47.930;9.766;2023-04-03T02:17:02;2.00;99.90
21261;DHT22;10788;47.930;9.766;2023-04-03T02:19:30;2.00;99.90
21261;DHT22;10788;47.930;9.766;2023-04-03T02:21:56;2.00;99.90
21261;DHT22;10788;47.930;9.766;2023-04-03T02:24:22;2.00;99.90
21261;DHT22;10788;47.930;9.766;2023-04-03T02:26:47;2.00;99.90
21261;DHT22;10788;47.930;9.766;2023-04-03T02:29:13;2.00;99.90
21261;DHT22;10788;47.930;9.766;2023-04-03T02:31:39;2.00;99.90
21261;DHT22;10788;47.930;9.766;2023-04-03T02:34:04;2.00;99.90
21261;DHT22;10788;47.930;9.766;2023-04-03T02:36:31;2.00;99.90
21261;DHT22;10788;47.930;9.766;2023-04-03T02:38:56;2.00;99.90
21261;DHT22;10788;47.930;9.766;2023-04-03T02:41:22;2.00;99.90
21261;DHT22;10788;47.930;9.766;2023-04-03T02:43:47;1.90;99.90
21261;DHT22;10788;47.930;9.766;2023-04-03T02:46:13;2.00;99.90
21261;DHT22;10788;47.930;9.766;2023-04-03T02:48:40;2.00;99.90
21261;DHT22;10788;47.930;9.766;2023-04-03T02:51:06;2.00;99.90
21261;DHT22;10788;47.930;9.766;2023-04-03T02:53:31;2.00;99.90
21261;DHT22;10788;47.930;9.766;2023-04-03T02:55:57;2.00;99.90
21261;DHT22;10788;47.930;9.766;2023-04-03T02:58:23;2.00;99.90
21261;DHT22;10788;47.930;9.766;2023-04-03T03:00:48;2.00;99.90
21261;DHT22;10788;47.930;9.766;2023-04-03T03:03:14;2.00;99.90
21261;DHT22;10788;47.930;9.766;2023-04-03T03:05:40;1.90;99.90
21261;DHT22;10788;47.930;9.766;2023-04-03T03:08:06;1.90;99.90
21261;DHT22;10788;47.930;9.766;2023-04-03T03:10:31;1.90;99.90
21261;DHT22;10788;47.930;9.766;2023-04-03T03:12:57;2.00;99.90
21261;DHT22;10788;47.930;9.766;2023-04-03T03:15:22;2.00;99.90
21261;DHT22;10788;47.930;9.766;2023-04-03T03:17:48;2.00;99.90
21261;DHT22;10788;47.930;9.766;2023-04-03T03:20:13;2.00;99.90
21261;DHT22;10788;47.930;9.766;2023-04-03T03:22:40;2.00;99.90
21261;DHT22;10788;47.930;9.766;2023-04-03T03:25:06;2.00;99.90
21261;DHT22;10788;47.930;9.766;2023-04-03T03:27:32;2.00;99.90
21261;DHT22;10788;47.930;9.766;2023-04-03T03:29:58;2.00;99.90
21261;DHT22;10788;47.930;9.766;2023-04-03T03:32:23;2.00;99.90
21261;DHT22;10788;47.930;9.766;2023-04-03T03:34:49;1.90;99.90
21261;DHT22;10788;47.930;9.766;2023-04-03T03:37:15;2.00;99.90
21261;DHT22;10788;47.930;9.766;2023-04-03T03:39:40;1.90;99.90
21261;DHT22;10788;47.930;9.766;2023-04-03T03:42:06;1.90;99.90
21261;DHT22;10788;47.930;9.766;2023-04-03T03:44:31;1.90;99.90
21261;DHT22;10788;47.930;9.766;2023-04-03T03:46:57;1.90;99.90
21261;DHT22;10788;47.930;9.766;2023-04-03T03:49:23;1.90;99.90
21261;DHT22;10788;47.930;9.766;2023-04-03T03:51:49;1.80;99.90
21261;DHT22;10788;47.930;9.766;2023-04-03T03:54:16;1.80;99.90
21261;DHT22;10788;47.930;9.766;2023-04-03T03:56:41;1.80;99.90
21261;DHT22;10788;47.930;9.766;2023-04-03T03:59:07;1.90;99.90
21261;DHT22;10788;47.930;9.766;2023-04-03T04:01:33;1.90;99.90
21261;DHT22;10788;47.930;9.766;2023-04-03T04:03:58;1.90;99.90
21261;DHT22;10788;47.930;9.766;2023-04-03T04:06:24;1.90;99.90
21261;DHT22;10788;47.930;9.766;2023-04-03T04:08:50;1.90;99.90
21261;DHT22;10788;47.930;9.766;2023-04-03T04:11:16;1.70;99.90
21261;DHT22;10788;47.930;9.766;2023-04-03T04:13:41;1.70;99.90
21261;DHT22;10788;47.930;9.766;2023-04-03T04:16:07;1.80;99.90
21261;DHT22;10788;47.930;9.766;2023-04-03T04:18:33;1.80;99.90
21261;DHT22;10788;47.930;9.766;2023-04-03T04:20:59;1.70;99.90
21261;DHT22;10788;47.930;9.766;2023-04-03T04:23:25;1.70;99.90
21261;DHT22;10788;47.930;9.766;2023-04-03T04:25:51;1.70;99.90
21261;DHT22;10788;47.930;9.766;2023-04-03T04:28:17;1.70;99.90
21261;DHT22;10788;47.930;9.766;2023-04-03T04:30:43;1.70;99.90
21261;DHT22;10788;47.930;9.766;2023-04-03T04:33:10;1.70;99.90
21261;DHT22;10788;47.930;9.766;2023-04-03T04:35:36;1.70;99.90
21261;DHT22;10788;47.930;9.766;2023-04-03T04:38:01;1.80;99.90
21261;DHT22;10788;47.930;9.766;2023-04-03T04:40:28;1.70;99.90
21261;DHT22;10788;47.930;9.766;2023-04-03T04:42:54;1.70;99.90
21261;DHT22;10788;47.930;9.766;2023-04-03T04:45:19;1.70;99.90
21261;DHT22;10788;47.930;9.766;2023-04-03T04:47:45;1.60;99.90
21261;DHT22;10788;47.930;9.766;2023-04-03T04:50:11;1.60;99.90
21261;DHT22;10788;47.930;9.766;2023-04-03T04:52:38;1.50;99.90
21261;DHT22;10788;47.930;9.766;2023-04-03T04:55:04;1.60;99.90
21261;DHT22;10788;47.930;9.766;2023-04-03T04:57:30;1.40;99.90
21261;DHT22;10788;47.930;9.766;2023-04-03T04:59:55;1.40;99.90
21261;DHT22;10788;47.930;9.766;2023-04-03T05:02:21;1.50;99.90
21261;DHT22;10788;47.930;9.766;2023-04-03T05:04:47;1.40;99.90
21261;DHT22;10788;47.930;9.766;2023-04-03T05:07:12;1.40;99.90
21261;DHT22;10788;47.930;9.766;2023-04-03T05:09:38;1.40;99.90
21261;DHT22;10788;47.930;9.766;2023-04-03T05:12:04;1.50;99.90
21261;DHT22;10788;47.930;9.766;2023-04-03T05:14:29;1.50;99.90
21261;DHT22;10788;47.930;9.766;2023-04-03T05:16:55;1.50;99.90
21261;DHT22;10788;47.930;9.766;2023-04-03T05:19:21;1.60;99.90
21261;DHT22;10788;47.930;9.766;2023-04-03T05:21:47;1.60;99.90
21261;DHT22;10788;47.930;9.766;2023-04-03T05:24:14;1.70;99.90
21261;DHT22;10788;47.930;9.766;2023-04-03T05:26:41;1.60;99.90
21261;DHT22;10788;47.930;9.766;2023-04-03T05:29:06;1.60;99.90
21261;DHT22;10788;47.930;9.766;2023-04-03T05:31:32;1.60;99.90
21261;DHT22;10788;47.930;9.766;2023-04-03T05:33:58;1.70;99.90
21261;DHT22;10788;47.930;9.766;2023-04-03T05:36:23;1.70;99.90
21261;DHT22;10788;47.930;9.766;2023-04-03T05:38:49;1.70;99.90
21261;DHT22;10788;47.930;9.766;2023-04-03T05:41:15;1.70;99.90
21261;DHT22;10788;47.930;9.766;2023-04-03T05:43:41;1.50;99.90
21261;DHT22;10788;47.930;9.766;2023-04-03T05:46:15;1.70;99.90
21261;DHT22;10788;47.930;9.766;2023-04-03T05:48:42;1.70;99.90
21261;DHT22;10788;47.930;9.766;2023-04-03T05:51:14;1.70;99.90
21261;DHT22;10788;47.930;9.766;2023-04-03T05:53:41;1.80;99.90
21261;DHT22;10788;47.930;9.766;2023-04-03T05:56:07;1.80;99.90
21261;DHT22;10788;47.930;9.766;2023-04-03T05:58:33;1.80;99.90
21261;DHT22;10788;47.930;9.766;2023-04-03T06:00:58;1.70;99.90
21261;DHT22;10788;47.930;9.766;2023-04-03T06:03:24;1.80;99.90
21261;DHT22;10788;47.930;9.766;2023-04-03T06:05:50;1.80;99.90
21261;DHT22;10788;47.930;9.766;2023-04-03T06:08:16;1.80;99.90
21261;DHT22;10788;47.930;9.766;2023-04-03T06:10:41;1.80;99.90
21261;DHT22;10788;47.930;9.766;2023-04-03T06:13:07;1.80;99.90
21261;DHT22;10788;47.930;9.766;2023-04-03T06:15:33;1.80;99.90
21261;DHT22;10788;47.930;9.766;2023-04-03T06:17:59;1.80;99.90
21261;DHT22;10788;47.930;9.766;2023-04-03T06:20:25;1.80;99.90
21261;DHT22;10788;47.930;9.766;2023-04-03T06:22:51;1.90;99.90
21261;DHT22;10788;47.930;9.766;2023-04-03T06:25:16;1.90;99.90
21261;DHT22;10788;47.930;9.766;2023-04-03T06:27:44;2.00;99.90
21261;DHT22;10788;47.930;9.766;2023-04-03T06:30:10;2.00;99.90
21261;DHT22;10788;47.930;9.766;2023-04-03T06:32:37;2.00;99.90
21261;DHT22;10788;47.930;9.766;2023-04-03T06:35:03;2.00;99.90
21261;DHT22;10788;47.930;9.766;2023-04-03T06:37:29;1.90;99.90
21261;DHT22;10788;47.930;9.766;2023-04-03T06:39:56;1.90;99.90
21261;DHT22;10788;47.930;9.766;2023-04-03T06:42:22;2.00;99.90
21261;DHT22;10788;47.930;9.766;2023-04-03T06:44:48;2.00;99.90
21261;DHT22;10788;47.930;9.766;2023-04-03T06:47:14;2.00;99.90
21261;DHT22;10788;47.930;9.766;2023-04-03T06:49:40;2.10;99.90
21261;DHT22;10788;47.930;9.766;2023-04-03T06:52:07;2.10;99.90
21261;DHT22;10788;47.930;9.766;2023-04-03T06:54:33;2.20;99.90
21261;DHT22;10788;47.930;9.766;2023-04-03T06:56:59;2.20;99.90
21261;DHT22;10788;47.930;9.766;2023-04-03T06:59:25;2.10;99.90
21261;DHT22;10788;47.930;9.766;2023-04-03T07:01:51;2.10;99.90
21261;DHT22;10788;47.930;9.766;2023-04-03T07:04:17;2.20;99.90
21261;DHT22;10788;47.930;9.766;2023-04-03T07:06:43;2.20;99.90
21261;DHT22;10788;47.930;9.766;2023-04-03T07:09:09;2.10;99.90
21261;DHT22;10788;47.930;9.766;2023-04-03T07:11:36;2.20;99.90
21261;DHT22;10788;47.930;9.766;2023-04-03T07:14:02;2.20;99.90
21261;DHT22;10788;47.930;9.766;2023-04-03T07:16:28;2.20;99.90
21261;DHT22;10788;47.930;9.766;2023-04-03T07:18:56;2.30;99.90
21261;DHT22;10788;47.930;9.766;2023-04-03T07:21:21;2.40;99.90
21261;DHT22;10788;47.930;9.766;2023-04-03T07:23:47;2.40;99.90
21261;DHT22;10788;47.930;9.766;2023-04-03T07:26:13;2.50;99.90
21261;DHT22;10788;47.930;9.766;2023-04-03T07:28:39;2.50;99.90
21261;DHT22;10788;47.930;9.766;2023-04-03T07:31:08;2.50;99.90
21261;DHT22;10788;47.930;9.766;2023-04-03T07:33:37;2.40;99.90
21261;DHT22;10788;47.930;9.766;2023-04-03T07:36:03;2.40;99.90
21261;DHT22;10788;47.930;9.766;2023-04-03T07:38:29;2.40;99.90
21261;DHT22;10788;47.930;9.766;2023-04-03T07:40:55;2.40;99.90
21261;DHT22;10788;47.930;9.766;2023-04-03T07:43:22;2.50;99.90
21261;DHT22;10788;47.930;9.766;2023-04-03T07:45:48;2.50;99.90
21261;DHT22;10788;47.930;9.766;2023-04-03T07:48:19;2.50;99.90
21261;DHT22;10788;47.930;9.766;2023-04-03T07:50:45;2.60;99.90
21261;DHT22;10788;47.930;9.766;2023-04-03T07:53:10;2.60;99.90
21261;DHT22;10788;47.930;9.766;2023-04-03T07:55:37;2.50;99.90
21261;DHT22;10788;47.930;9.766;2023-04-03T07:58:09;2.50;99.90
21261;DHT22;10788;47.930;9.766;2023-04-03T08:00:36;2.60;99.90
21261;DHT22;10788;47.930;9.766;2023-04-03T08:03:01;2.60;99.90
21261;DHT22;10788;47.930;9.766;2023-04-03T08:05:27;2.60;99.90
21261;DHT22;10788;47.930;9.766;2023-04-03T08:07:53;2.70;99.90
21261;DHT22;10788;47.930;9.766;2023-04-03T08:10:18;2.70;99.90
21261;DHT22;10788;47.930;9.766;2023-04-03T08:12:46;2.70;99.90
21261;DHT22;10788;47.930;9.766;2023-04-03T08:15:12;2.50;99.90
21261;DHT22;10788;47.930;9.766;2023-04-03T08:17:37;2.50;99.90
21261;DHT22;10788;47.930;9.766;2023-04-03T08:20:05;2.60;99.90
21261;DHT22;10788;47.930;9.766;2023-04-03T08:22:32;2.60;99.90
21261;DHT22;10788;47.930;9.766;2023-04-03T08:24:59;2.60;99.90
21261;DHT22;10788;47.930;9.766;2023-04-03T08:27:25;2.70;99.90
21261;DHT22;10788;47.930;9.766;2023-04-03T08:29:51;2.60;99.90
21261;DHT22;10788;47.930;9.766;2023-04-03T08:32:17;2.80;99.90
21261;DHT22;10788;47.930;9.766;2023-04-03T08:34:43;2.80;99.90
21261;DHT22;10788;47.930;9.766;2023-04-03T08:37:09;2.70;99.90
21261;DHT22;10788;47.930;9.766;2023-04-03T08:39:35;2.70;99.90
21261;DHT22;10788;47.930;9.766;2023-04-03T08:42:05;2.70;99.90
21261;DHT22;10788;47.930;9.766;2023-04-03T08:49:51;2.70;99.90
21261;DHT22;10788;47.930;9.766;2023-04-03T08:52:42;2.80;99.90
21261;DHT22;10788;47.930;9.766;2023-04-03T08:58:16;2.80;99.90
21261;DHT22;10788;47.930;9.766;2023-04-03T09:01:17;2.80;99.90
21261;DHT22;10788;47.930;9.766;2023-04-03T09:03:43;2.80;99.90
21261;DHT22;10788;47.930;9.766;2023-04-03T09:06:16;2.80;99.90
21261;DHT22;10788;47.930;9.766;2023-04-03T09:09:06;2.80;99.90
21261;DHT22;10788;47.930;9.766;2023-04-03T09:11:55;3.00;99.90
21261;DHT22;10788;47.930;9.766;2023-04-03T09:19:58;3.10;99.90
21261;DHT22;10788;47.930;9.766;2023-04-03T09:22:32;3.20;99.90
21261;DHT22;10788;47.930;9.766;2023-04-03T09:27:29;3.20;99.90
21261;DHT22;10788;47.930;9.766;2023-04-03T09:29:56;3.30;99.90
21261;DHT22;10788;47.930;9.766;2023-04-03T09:32:29;3.20;99.90
21261;DHT22;10788;47.930;9.766;2023-04-03T09:34:59;3.20;99.90
21261;DHT22;10788;47.930;9.766;2023-04-03T09:37:44;3.40;99.90
21261;DHT22;10788;47.930;9.766;2023-04-03T09:42:52;3.30;99.90
21261;DHT22;10788;47.930;9.766;2023-04-03T09:45:35;3.40;99.90
21261;DHT22;10788;47.930;9.766;2023-04-03T09:50:34;3.50;99.90
21261;DHT22;10788;47.930;9.766;2023-04-03T09:53:11;3.50;99.90
21261;DHT22;10788;47.930;9.766;2023-04-03T09:55:50;3.60;99.90
21261;DHT22;10788;47.930;9.766;2023-04-03T09:58:28;3.70;99.90
21261;DHT22;10788;47.930;9.766;2023-04-03T10:01:00;4.00;99.90
21261;DHT22;10788;47.930;9.766;2023-04-03T10:03:33;4.10;99.90
21261;DHT22;10788;47.930;9.766;2023-04-03T10:06:02;4.20;99.90
21261;DHT22;10788;47.930;9.766;2023-04-03T10:08:31;4.30;99.90
21261;DHT22;10788;47.930;9.766;2023-04-03T10:11:12;4.30;99.90
21261;DHT22;10788;47.930;9.766;2023-04-03T10:13:50;4.40;99.90
21261;DHT22;10788;47.930;9.766;2023-04-03T10:16:20;4.60;99.90
21261;DHT22;10788;47.930;9.766;2023-04-03T10:18:52;4.60;99.90
21261;DHT22;10788;47.930;9.766;2023-04-03T10:21:55;4.50;99.90
21261;DHT22;10788;47.930;9.766;2023-04-03T10:24:28;4.70;99.90
21261;DHT22;10788;47.930;9.766;2023-04-03T10:29:46;4.80;99.90
21261;DHT22;10788;47.930;9.766;2023-04-03T10:40:36;4.70;99.90
21261;DHT22;10788;47.930;9.766;2023-04-03T10:43:21;4.60;99.90
21261;DHT22;10788;47.930;9.766;2023-04-03T10:45:51;4.60;99.90
21261;DHT22;10788;47.930;9.766;2023-04-03T10:48:57;4.60;99.90
21261;DHT22;10788;47.930;9.766;2023-04-03T10:51:44;4.60;99.90
21261;DHT22;10788;47.930;9.766;2023-04-03T10:54:28;4.70;99.90
21261;DHT22;10788;47.930;9.766;2023-04-03T10:57:06;4.80;99.90
21261;DHT22;10788;47.930;9.766;2023-04-03T10:59:41;4.90;99.90
21261;DHT22;10788;47.930;9.766;2023-04-03T11:02:31;4.70;99.90
21261;DHT22;10788;47.930;9.766;2023-04-03T11:05:22;4.70;99.90
21261;DHT22;10788;47.930;9.766;2023-04-03T11:07:53;4.80;99.90
21261;DHT22;10788;47.930;9.766;2023-04-03T11:10:25;4.90;99.90
21261;DHT22;10788;47.930;9.766;2023-04-03T11:12:58;5.10;99.90
21261;DHT22;10788;47.930;9.766;2023-04-03T11:15:29;5.00;99.90
21261;DHT22;10788;47.930;9.766;2023-04-03T11:18:00;5.10;99.90
21261;DHT22;10788;47.930;9.766;2023-04-03T11:20:30;5.10;99.90
21261;DHT22;10788;47.930;9.766;2023-04-03T11:23:25;5.10;99.90
21261;DHT22;10788;47.930;9.766;2023-04-03T11:25:54;5.30;99.90
21261;DHT22;10788;47.930;9.766;2023-04-03T11:28:20;5.40;99.90
21261;DHT22;10788;47.930;9.766;2023-04-03T11:36:03;5.80;99.90
21261;DHT22;10788;47.930;9.766;2023-04-03T11:38:36;5.70;99.90
21261;DHT22;10788;47.930;9.766;2023-04-03T11:41:06;5.60;99.90
21261;DHT22;10788;47.930;9.766;2023-04-03T11:43:33;5.70;99.90
21261;DHT22;10788;47.930;9.766;2023-04-03T11:46:01;5.50;99.90
21261;DHT22;10788;47.930;9.766;2023-04-03T11:53:43;5.40;99.90
21261;DHT22;10788;47.930;9.766;2023-04-03T12:04:18;5.20;99.90
21261;DHT22;10788;47.930;9.766;2023-04-03T12:14:52;5.20;99.90
21261;DHT22;10788;47.930;9.766;2023-04-03T12:17:27;5.30;99.90
21261;DHT22;10788;47.930;9.766;2023-04-03T12:19:54;5.00;99.90
21261;DHT22;10788;47.930;9.766;2023-04-03T12:22:21;5.00;99.90
21261;DHT22;10788;47.930;9.766;2023-04-03T12:24:49;5.10;99.90
21261;DHT22;10788;47.930;9.766;2023-04-03T12:27:26;5.20;99.90
21261;DHT22;10788;47.930;9.766;2023-04-03T12:30:07;5.40;99.90
21261;DHT22;10788;47.930;9.766;2023-04-03T12:32:47;5.50;99.90
21261;DHT22;10788;47.930;9.766;2023-04-03T12:36:11;5.70;99.90
21261;DHT22;10788;47.930;9.766;2023-04-03T12:38:40;5.80;99.90
21261;DHT22;10788;47.930;9.766;2023-04-03T12:46:47;5.80;99.90
21261;DHT22;10788;47.930;9.766;2023-04-03T12:49:35;5.70;99.90
21261;DHT22;10788;47.930;9.766;2023-04-03T12:52:17;5.60;99.90
21261;DHT22;10788;47.930;9.766;2023-04-03T12:54:46;5.50;99.90
21261;DHT22;10788;47.930;9.766;2023-04-03T12:59:40;5.30;99.90
21261;DHT22;10788;47.930;9.766;2023-04-03T13:02:35;5.20;99.90
21261;DHT22;10788;47.930;9.766;2023-04-03T13:05:09;5.10;99.90
21261;DHT22;10788;47.930;9.766;2023-04-03T13:07:40;5.10;99.90
21261;DHT22;10788;47.930;9.766;2023-04-03T13:12:58;5.20;99.90
21261;DHT22;10788;47.930;9.766;2023-04-03T13:15:27;5.30;99.90
21261;DHT22;10788;47.930;9.766;2023-04-03T13:17:53;5.20;99.90
21261;DHT22;10788;47.930;9.766;2023-04-03T13:20:34;5.20;99.90
21261;DHT22;10788;47.930;9.766;2023-04-03T13:23:07;5.20;99.90
21261;DHT22;10788;47.930;9.766;2023-04-03T13:25:36;5.20;99.90
21261;DHT22;10788;47.930;9.766;2023-04-03T13:28:04;5.30;99.90
21261;DHT22;10788;47.930;9.766;2023-04-03T13:30:33;5.30;99.90
21261;DHT22;10788;47.930;9.766;2023-04-03T13:33:02;5.30;99.90
21261;DHT22;10788;47.930;9.766;2023-04-03T13:35:38;5.20;99.90
21261;DHT22;10788;47.930;9.766;2023-04-03T13:43:53;5.20;99.90
21261;DHT22;10788;47.930;9.766;2023-04-03T13:48:47;5.30;99.90
21261;DHT22;10788;47.930;9.766;2023-04-03T13:53:59;5.40;99.90
21261;DHT22;10788;47.930;9.766;2023-04-03T13:56:37;5.30;99.90
21261;DHT22;10788;47.930;9.766;2023-04-03T13:59:23;5.30;99.90
21261;DHT22;10788;47.930;9.766;2023-04-03T14:01:56;5.20;99.90
21261;DHT22;10788;47.930;9.766;2023-04-03T14:04:46;5.20;99.90
21261;DHT22;10788;47.930;9.766;2023-04-03T14:07:12;5.10;99.90
21261;DHT22;10788;47.930;9.766;2023-04-03T14:09:38;5.20;99.90
21261;DHT22;10788;47.930;9.766;2023-04-03T14:12:17;5.20;99.90
21261;DHT22;10788;47.930;9.766;2023-04-03T14:14:44;5.30;99.90
21261;DHT22;10788;47.930;9.766;2023-04-03T14:17:16;5.30;99.90
21261;DHT22;10788;47.930;9.766;2023-04-03T14:19:43;5.40;99.90
21261;DHT22;10788;47.930;9.766;2023-04-03T14:22:19;5.40;99.90
21261;DHT22;10788;47.930;9.766;2023-04-03T14:24:47;5.40;99.90
21261;DHT22;10788;47.930;9.766;2023-04-03T14:27:23;5.50;99.90
21261;DHT22;10788;47.930;9.766;2023-04-03T14:29:51;5.40;99.90
21261;DHT22;10788;47.930;9.766;2023-04-03T14:32:19;5.50;99.90
21261;DHT22;10788;47.930;9.766;2023-04-03T14:34:45;5.30;99.90
21261;DHT22;10788;47.930;9.766;2023-04-03T14:37:13;5.40;99.90
21261;DHT22;10788;47.930;9.766;2023-04-03T14:39:39;5.50;99.90
21261;DHT22;10788;47.930;9.766;2023-04-03T14:42:05;5.60;99.90
21261;DHT22;10788;47.930;9.766;2023-04-03T14:44:31;5.60;99.90
21261;DHT22;10788;47.930;9.766;2023-04-03T14:46:56;5.60;99.90
21261;DHT22;10788;47.930;9.766;2023-04-03T14:49:26;5.50;99.90
21261;DHT22;10788;47.930;9.766;2023-04-03T14:51:53;5.60;99.90
21261;DHT22;10788;47.930;9.766;2023-04-03T14:54:21;5.60;99.90
21261;DHT22;10788;47.930;9.766;2023-04-03T14:56:51;5.50;99.90
21261;DHT22;10788;47.930;9.766;2023-04-03T14:59:17;5.50;99.90
21261;DHT22;10788;47.930;9.766;2023-04-03T15:01:45;5.50;99.90
21261;DHT22;10788;47.930;9.766;2023-04-03T15:04:20;5.40;99.90
21261;DHT22;10788;47.930;9.766;2023-04-03T15:06:47;5.20;99.90
21261;DHT22;10788;47.930;9.766;2023-04-03T15:09:25;5.00;99.90
21261;DHT22;10788;47.930;9.766;2023-04-03T15:11:52;5.00;99.90
21261;DHT22;10788;47.930;9.766;2023-04-03T15:14:18;4.90;99.90
21261;DHT22;10788;47.930;9.766;2023-04-03T15:16:44;4.80;99.90
21261;DHT22;10788;47.930;9.766;2023-04-03T15:19:11;5.00;99.90
21261;DHT22;10788;47.930;9.766;2023-04-03T15:21:37;5.20;99.90
21261;DHT22;10788;47.930;9.766;2023-04-03T15:24:02;5.20;99.90
21261;DHT22;10788;47.930;9.766;2023-04-03T15:26:29;5.40;99.90
21261;DHT22;10788;47.930;9.766;2023-04-03T15:28:55;5.50;99.90
21261;DHT22;10788;47.930;9.766;2023-04-03T15:31:20;5.60;99.90
21261;DHT22;10788;47.930;9.766;2023-04-03T15:33:46;5.60;99.90
21261;DHT22;10788;47.930;9.766;2023-04-03T15:36:11;5.70;99.90
21261;DHT22;10788;47.930;9.766;2023-04-03T15:38:37;5.70;99.90
21261;DHT22;10788;47.930;9.766;2023-04-03T15:41:03;5.50;99.90
21261;DHT22;10788;47.930;9.766;2023-04-03T15:43:29;5.40;99.90
21261;DHT22;10788;47.930;9.766;2023-04-03T15:45:58;5.50;99.90
21261;DHT22;10788;47.930;9.766;2023-04-03T15:48:26;5.40;99.90
21261;DHT22;10788;47.930;9.766;2023-04-03T15:50:52;5.20;99.90
21261;DHT22;10788;47.930;9.766;2023-04-03T15:53:18;5.20;99.90
21261;DHT22;10788;47.930;9.766;2023-04-03T15:55:43;5.10;99.90
21261;DHT22;10788;47.930;9.766;2023-04-03T15:58:09;4.90;99.90
21261;DHT22;10788;47.930;9.766;2023-04-03T16:00:36;4.90;99.90
21261;DHT22;10788;47.930;9.766;2023-04-03T16:03:10;4.80;99.90
21261;DHT22;10788;47.930;9.766;2023-04-03T16:05:37;4.80;99.90
21261;DHT22;10788;47.930;9.766;2023-04-03T16:08:04;5.00;99.90
21261;DHT22;10788;47.930;9.766;2023-04-03T16:10:30;5.00;99.90
21261;DHT22;10788;47.930;9.766;2023-04-03T16:12:56;5.10;99.90
21261;DHT22;10788;47.930;9.766;2023-04-03T16:15:22;5.20;99.90
21261;DHT22;10788;47.930;9.766;2023-04-03T16:17:49;5.20;99.90
21261;DHT22;10788;47.930;9.766;2023-04-03T16:20:15;5.20;99.90
21261;DHT22;10788;47.930;9.766;2023-04-03T16:22:42;5.20;99.90
21261;DHT22;10788;47.930;9.766;2023-04-03T16:25:08;5.10;99.90
21261;DHT22;10788;47.930;9.766;2023-04-03T16:27:34;5.20;99.90
21261;DHT22;10788;47.930;9.766;2023-04-03T16:30:00;5.20;99.90
21261;DHT22;10788;47.930;9.766;2023-04-03T16:32:29;5.20;99.90
21261;DHT22;10788;47.930;9.766;2023-04-03T16:34:56;5.20;99.90
21261;DHT22;10788;47.930;9.766;2023-04-03T16:37:21;5.20;99.90
21261;DHT22;10788;47.930;9.766;2023-04-03T16:39:47;5.10;99.90
21261;DHT22;10788;47.930;9.766;2023-04-03T16:42:13;5.10;99.90
21261;DHT22;10788;47.930;9.766;2023-04-03T16:44:39;5.10;99.90
21261;DHT22;10788;47.930;9.766;2023-04-03T16:47:05;5.20;99.90
21261;DHT22;10788;47.930;9.766;2023-04-03T16:49:32;5.10;99.90
21261;DHT22;10788;47.930;9.766;2023-04-03T16:52:00;5.20;99.90
21261;DHT22;10788;47.930;9.766;2023-04-03T16:54:26;5.10;99.90
21261;DHT22;10788;47.930;9.766;2023-04-03T16:56:52;5.10;99.90
21261;DHT22;10788;47.930;9.766;2023-04-03T16:59:18;5.10;99.90
21261;DHT22;10788;47.930;9.766;2023-04-03T17:01:43;5.00;99.90
21261;DHT22;10788;47.930;9.766;2023-04-03T17:04:09;5.00;99.90
21261;DHT22;10788;47.930;9.766;2023-04-03T17:06:35;4.90;99.90
21261;DHT22;10788;47.930;9.766;2023-04-03T17:09:01;4.90;99.90
21261;DHT22;10788;47.930;9.766;2023-04-03T17:11:27;4.90;99.90
21261;DHT22;10788;47.930;9.766;2023-04-03T17:13:53;4.90;99.90
21261;DHT22;10788;47.930;9.766;2023-04-03T17:16:20;4.70;99.90
21261;DHT22;10788;47.930;9.766;2023-04-03T17:18:46;4.70;99.90
21261;DHT22;10788;47.930;9.766;2023-04-03T17:21:13;4.70;99.90
21261;DHT22;10788;47.930;9.766;2023-04-03T17:23:40;4.70;99.90
21261;DHT22;10788;47.930;9.766;2023-04-03T17:26:08;4.70;99.90